createdAt,value
2023-03-17T00:00:47.523Z,7.27
2023-03-17T00:03:27.306Z,7.27
2023-03-17T00:05:56.552Z,6.90
2023-03-17T00:08:27.183Z,6.80
2023-03-17T00:10:55.643Z,6.40
2023-03-17T00:13:24.924Z,7.50
2023-03-17T00:16:01.601Z,6.97
2023-03-17T00:18:33.947Z,6.87
2023-03-17T00:21:01.295Z,7.40
2023-03-17T00:23:28.704Z,6.97
2023-03-17T00:25:57.241Z,7.00
2023-03-17T00:28:26.744Z,6.77
2023-03-17T00:30:59.502Z,6.80
2023-03-17T00:33:28.794Z,7.87
2023-03-17T00:35:58.528Z,6.80
2023-03-17T00:38:25.884Z,7.17
2023-03-17T00:40:54.104Z,6.83
2023-03-17T00:43:23.070Z,8.67
2023-03-17T00:45:51.655Z,6.93
2023-03-17T00:48:21.256Z,7.50
2023-03-17T00:50:50.108Z,6.90
2023-03-17T00:53:20.461Z,7.03
2023-03-17T00:55:48.959Z,6.80
2023-03-17T00:58:34.214Z,7.63
2023-03-17T01:01:02.625Z,7.03
2023-03-17T01:03:30.918Z,7.10
2023-03-17T01:05:58.393Z,6.90
2023-03-17T01:08:26.612Z,7.37
2023-03-17T01:10:54.794Z,6.50
2023-03-17T01:13:22.908Z,7.03
2023-03-17T01:15:51.018Z,6.00
2023-03-17T01:18:21.262Z,7.07
2023-03-17T01:20:49.856Z,6.77
2023-03-17T01:23:17.590Z,6.70
2023-03-17T01:25:45.337Z,7.00
2023-03-17T01:28:18.503Z,6.70
2023-03-17T01:30:46.959Z,7.83
2023-03-17T01:33:14.834Z,7.17
2023-03-17T01:35:43.768Z,7.30
2023-03-17T01:38:11.797Z,8.00
2023-03-17T01:40:51.097Z,6.53
2023-03-17T01:43:29.229Z,6.83
2023-03-17T01:46:20.607Z,6.17
2023-03-17T01:48:59.934Z,7.27
2023-03-17T01:51:46.271Z,6.47
2023-03-17T01:54:41.953Z,7.97
2023-03-17T01:57:29.343Z,6.97
2023-03-17T02:00:01.568Z,7.07
2023-03-17T02:02:35.230Z,6.63
2023-03-17T02:05:05.622Z,7.33
2023-03-17T02:07:34.009Z,7.13
2023-03-17T02:10:04.106Z,6.60
2023-03-17T02:12:31.614Z,7.20
2023-03-17T02:14:59.448Z,7.57
2023-03-17T02:17:28.652Z,8.17
2023-03-17T02:19:56.310Z,7.30
2023-03-17T02:22:24.032Z,6.67
2023-03-17T02:24:56.496Z,7.40
2023-03-17T02:27:36.244Z,6.97
2023-03-17T02:30:06.317Z,7.10
2023-03-17T02:32:37.606Z,7.70
2023-03-17T02:35:07.133Z,6.73
2023-03-17T02:37:38.432Z,8.07
2023-03-17T02:40:07.664Z,6.77
2023-03-17T02:42:35.623Z,6.90
2023-03-17T02:45:03.229Z,8.27
2023-03-17T02:47:30.628Z,7.30
2023-03-17T02:49:58.840Z,7.60
2023-03-17T02:52:26.992Z,7.53
2023-03-17T02:54:54.248Z,7.50
2023-03-17T02:57:21.989Z,7.00
2023-03-17T02:59:50.842Z,8.00
2023-03-17T03:02:18.178Z,8.07
2023-03-17T03:04:46.275Z,7.60
2023-03-17T03:07:13.536Z,9.07
2023-03-17T03:09:42.042Z,7.23
2023-03-17T03:12:09.953Z,8.20
2023-03-17T03:14:37.546Z,7.83
2023-03-17T03:17:04.929Z,6.87
2023-03-17T03:19:32.194Z,7.33
2023-03-17T03:21:59.497Z,7.60
2023-03-17T03:24:27.758Z,6.97
2023-03-17T03:26:55.004Z,7.17
2023-03-17T03:29:22.751Z,7.20
2023-03-17T03:31:50.358Z,7.77
2023-03-17T03:34:17.834Z,6.87
2023-03-17T03:36:45.395Z,7.80
2023-03-17T03:39:14.431Z,7.07
2023-03-17T03:41:42.276Z,7.10
2023-03-17T03:44:09.639Z,6.53
2023-03-17T03:46:37.413Z,6.63
2023-03-17T03:49:04.973Z,7.07
2023-03-17T03:51:32.467Z,6.70
2023-03-17T03:54:01.209Z,7.33
2023-03-17T03:56:28.776Z,7.13
2023-03-17T03:58:57.295Z,7.00
2023-03-17T04:01:25.067Z,7.63
2023-03-17T04:03:52.560Z,7.03
2023-03-17T04:06:19.817Z,7.63
2023-03-17T04:08:47.093Z,7.30
2023-03-17T04:11:14.806Z,7.30
2023-03-17T04:13:42.085Z,7.30
2023-03-17T04:16:09.749Z,6.17
2023-03-17T04:18:37.569Z,6.60
2023-03-17T04:21:05.255Z,7.00
2023-03-17T04:23:32.626Z,7.10
2023-03-17T04:25:59.892Z,7.10
2023-03-17T04:28:27.330Z,7.03
2023-03-17T04:30:54.691Z,7.27
2023-03-17T04:33:22.381Z,6.60
2023-03-17T04:35:49.688Z,6.73
2023-03-17T04:38:16.979Z,7.20
2023-03-17T04:40:44.258Z,7.50
2023-03-17T04:43:11.590Z,7.23
2023-03-17T04:45:39.088Z,7.47
2023-03-17T04:48:06.434Z,8.90
2023-03-17T04:50:34.339Z,8.07
2023-03-17T04:53:02.007Z,7.40
2023-03-17T04:55:29.639Z,7.43
2023-03-17T04:57:56.896Z,7.53
2023-03-17T05:00:25.143Z,7.90
2023-03-17T05:02:52.510Z,7.30
2023-03-17T05:05:19.891Z,6.90
2023-03-17T05:07:47.582Z,8.53
2023-03-17T05:10:14.846Z,7.77
2023-03-17T05:12:42.187Z,7.40
2023-03-17T05:15:09.903Z,7.23
2023-03-17T05:17:37.217Z,7.17
2023-03-17T05:20:05.679Z,7.67
2023-03-17T05:22:32.912Z,7.13
2023-03-17T05:25:00.504Z,7.57
2023-03-17T05:27:27.944Z,8.03
2023-03-17T05:29:55.382Z,7.33
2023-03-17T05:32:23.103Z,7.03
2023-03-17T05:35:17.884Z,7.20
2023-03-17T05:37:46.079Z,8.17
2023-03-17T05:40:14.575Z,7.47
2023-03-17T05:42:42.511Z,8.63
2023-03-17T05:45:10.254Z,7.93
2023-03-17T05:47:38.088Z,7.77
2023-03-17T05:50:06.612Z,6.87
2023-03-17T05:52:33.955Z,7.57
2023-03-17T05:55:04.980Z,6.97
2023-03-17T05:57:34.431Z,7.63
2023-03-17T06:00:05.159Z,7.60
2023-03-17T06:02:32.802Z,7.40
2023-03-17T06:05:00.251Z,11.30
2023-03-17T06:07:31.229Z,7.33
2023-03-17T06:10:07.053Z,7.60
2023-03-17T06:12:34.851Z,7.27
2023-03-17T06:15:02.594Z,8.37
2023-03-17T06:17:30.065Z,8.07
2023-03-17T06:19:57.463Z,7.53
2023-03-17T06:22:24.825Z,8.17
2023-03-17T06:24:54.851Z,8.67
2023-03-17T06:27:25.918Z,7.93
2023-03-17T06:29:53.800Z,7.47
2023-03-17T06:32:23.162Z,7.63
2023-03-17T06:34:51.720Z,7.57
2023-03-17T06:37:27.904Z,8.73
2023-03-17T06:40:23.306Z,8.53
2023-03-17T06:42:50.954Z,8.13
2023-03-17T06:45:18.568Z,7.70
2023-03-17T06:47:46.285Z,6.90
2023-03-17T06:50:14.275Z,7.80
2023-03-17T06:52:41.966Z,7.60
2023-03-17T06:55:10.234Z,7.27
2023-03-17T06:57:37.755Z,8.07
2023-03-17T07:00:06.560Z,8.13
2023-03-17T07:02:34.482Z,7.67
2023-03-17T07:05:02.299Z,8.03
2023-03-17T07:07:29.775Z,7.63
2023-03-17T07:09:57.310Z,8.30
2023-03-17T07:12:24.585Z,8.83
2023-03-17T07:14:52.226Z,8.70
2023-03-17T07:17:19.638Z,11.27
2023-03-17T07:19:46.958Z,8.47
2023-03-17T07:22:24.645Z,8.83
2023-03-17T07:33:39.404Z,9.03
2023-03-17T07:36:08.904Z,9.23
2023-03-17T07:38:36.332Z,8.40
2023-03-17T07:41:04.798Z,9.80
2023-03-17T07:43:33.315Z,8.10
2023-03-17T07:46:01.572Z,8.37
2023-03-17T07:48:33.923Z,8.33
2023-03-17T07:51:04.070Z,8.07
2023-03-17T07:53:31.472Z,7.80
2023-03-17T07:55:58.803Z,7.73
2023-03-17T07:58:26.643Z,8.77
2023-03-17T08:00:54.840Z,8.37
2023-03-17T08:03:22.737Z,9.20
2023-03-17T08:05:56.257Z,8.53
2023-03-17T08:08:25.077Z,7.70
2023-03-17T08:10:58.224Z,10.30
2023-03-17T08:13:25.892Z,10.40
2023-03-17T08:15:53.355Z,7.67
2023-03-17T08:18:20.726Z,7.50
2023-03-17T08:20:48.522Z,7.30
2023-03-17T08:23:16.454Z,7.97
2023-03-17T08:25:43.806Z,6.83
2023-03-17T08:28:11.401Z,6.33
2023-03-17T08:30:39.126Z,7.30
2023-03-17T08:33:06.752Z,7.23
2023-03-17T08:35:34.990Z,6.37
2023-03-17T08:38:03.537Z,6.50
2023-03-17T08:40:31.506Z,7.23
2023-03-17T08:42:59.181Z,6.87
2023-03-17T08:45:26.604Z,7.03
2023-03-17T08:47:54.182Z,6.70
2023-03-17T08:50:23.570Z,6.70
2023-03-17T08:52:53.172Z,6.67
2023-03-17T08:55:21.034Z,6.67
2023-03-17T08:57:48.786Z,6.70
2023-03-17T09:00:20.446Z,6.23
2023-03-17T09:02:49.052Z,6.93
2023-03-17T09:05:17.753Z,6.93
2023-03-17T09:07:45.290Z,8.20
2023-03-17T09:10:13.727Z,6.60
2023-03-17T09:12:41.399Z,7.50
2023-03-17T09:15:10.857Z,6.77
2023-03-17T09:17:38.129Z,7.27
2023-03-17T09:20:06.742Z,6.23
2023-03-17T09:22:34.321Z,6.53
2023-03-17T09:25:02.051Z,6.70
2023-03-17T09:27:31.307Z,6.37
2023-03-17T09:30:00.326Z,6.47
2023-03-17T09:32:29.506Z,6.60
2023-03-17T09:34:57.528Z,5.87
2023-03-17T09:37:25.068Z,6.00
2023-03-17T09:39:52.599Z,6.63
2023-03-17T09:42:53.251Z,7.20
2023-03-17T09:45:36.435Z,5.87
2023-03-17T09:48:32.200Z,6.73
2023-03-17T09:51:09.265Z,6.33
2023-03-17T09:53:59.932Z,6.50
2023-03-17T09:56:30.036Z,6.67
2023-03-17T09:59:01.904Z,6.73
2023-03-17T10:01:29.432Z,7.40
2023-03-17T10:03:58.501Z,6.30
2023-03-17T10:06:41.306Z,6.40
2023-03-17T10:09:35.696Z,6.00
2023-03-17T10:12:19.541Z,6.57
2023-03-17T10:14:49.018Z,5.83
2023-03-17T10:17:28.211Z,6.30
2023-03-17T10:20:00.843Z,6.23
2023-03-17T10:22:36.194Z,5.67
2023-03-17T10:25:25.549Z,5.33
2023-03-17T10:27:59.874Z,5.63
2023-03-17T10:30:34.771Z,5.63
2023-03-17T10:33:07.342Z,5.10
2023-03-17T10:35:37.450Z,5.53
2023-03-17T10:38:31.772Z,5.10
2023-03-17T10:41:03.715Z,5.90
2023-03-17T10:43:47.114Z,6.63
2023-03-17T10:46:22.401Z,5.37
2023-03-17T10:49:05.243Z,5.33
2023-03-17T10:51:37.857Z,5.50
2023-03-17T10:54:12.379Z,5.00
2023-03-17T10:56:42.324Z,6.43
2023-03-17T10:59:17.253Z,6.87
2023-03-17T11:01:59.523Z,5.93
2023-03-17T11:04:31.914Z,5.80
2023-03-17T11:07:05.156Z,8.47
2023-03-17T11:09:37.719Z,6.20
2023-03-17T11:12:21.617Z,5.70
2023-03-17T11:14:49.235Z,6.03
2023-03-17T11:17:31.348Z,5.30
2023-03-17T11:20:15.310Z,5.90
2023-03-17T11:23:02.037Z,6.10
2023-03-17T11:25:32.137Z,5.77
2023-03-17T11:28:22.430Z,9.03
2023-03-17T11:31:28.382Z,5.80
2023-03-17T11:34:40.054Z,6.03
2023-03-17T11:37:29.056Z,6.23
2023-03-17T11:40:37.743Z,5.33
2023-03-17T11:43:33.777Z,6.07
2023-03-17T11:55:45.807Z,5.87
2023-03-17T11:58:38.659Z,6.20
2023-03-17T12:01:09.420Z,6.43
2023-03-17T12:03:43.558Z,7.03
2023-03-17T12:06:28.786Z,6.10
2023-03-17T12:09:03.546Z,6.03
2023-03-17T12:11:40.413Z,5.90
2023-03-17T12:14:20.001Z,5.60
2023-03-17T12:16:57.114Z,6.33
2023-03-17T12:19:33.775Z,6.27
2023-03-17T12:22:08.078Z,6.47
2023-03-17T12:25:04.652Z,5.93
2023-03-17T12:27:41.219Z,6.13
2023-03-17T12:30:17.862Z,6.10
2023-03-17T12:32:54.930Z,5.87
2023-03-17T12:35:35.283Z,6.20
2023-03-17T12:38:11.477Z,6.47
2023-03-17T12:41:05.460Z,6.37
2023-03-17T12:43:48.284Z,5.90
2023-03-17T12:46:47.370Z,5.90
2023-03-17T12:49:29.851Z,7.40
2023-03-17T12:52:28.585Z,6.03
2023-03-17T12:55:01.874Z,6.47
2023-03-17T12:57:41.293Z,6.03
2023-03-17T13:00:47.178Z,6.43
2023-03-17T13:03:27.720Z,6.57
2023-03-17T13:06:01.112Z,6.03
2023-03-17T13:08:33.736Z,6.20
2023-03-17T13:11:27.843Z,5.60
2023-03-17T13:13:59.566Z,6.10
2023-03-17T13:16:41.201Z,6.07
2023-03-17T13:19:15.569Z,5.73
2023-03-17T13:22:03.283Z,6.33
2023-03-17T13:24:47.575Z,7.00
2023-03-17T13:27:30.971Z,6.63
2023-03-17T13:30:53.751Z,6.17
2023-03-17T13:33:27.670Z,6.33
2023-03-17T13:36:11.624Z,6.73
2023-03-17T13:39:15.073Z,6.60
2023-03-17T13:42:05.499Z,5.57
2023-03-17T13:44:42.979Z,6.27
2023-03-17T13:47:23.813Z,6.73
2023-03-17T13:49:55.051Z,6.57
2023-03-17T13:53:02.528Z,6.77
2023-03-17T13:55:43.450Z,6.27
2023-03-17T13:58:13.194Z,6.87
2023-03-17T14:00:50.784Z,13.07
2023-03-17T14:03:47.494Z,6.70
2023-03-17T14:06:19.492Z,6.70
2023-03-17T14:08:59.052Z,6.57
2023-03-17T14:11:38.199Z,7.30
2023-03-17T14:14:33.482Z,7.00
2023-03-17T14:17:06.196Z,6.90
2023-03-17T14:19:33.826Z,7.17
2023-03-17T14:22:20.391Z,6.80
2023-03-17T14:24:53.057Z,8.30
2023-03-17T14:27:24.753Z,6.93
2023-03-17T14:29:53.644Z,7.47
2023-03-17T14:32:24.514Z,7.73
2023-03-17T14:34:57.780Z,8.53
2023-03-17T14:37:26.931Z,6.57
2023-03-17T14:39:57.721Z,6.67
2023-03-17T14:42:28.456Z,7.13
2023-03-17T14:45:03.257Z,6.80
2023-03-17T14:47:37.162Z,6.30
2023-03-17T14:50:27.360Z,6.67
2023-03-17T14:52:55.504Z,7.33
2023-03-17T14:55:43.234Z,7.30
2023-03-17T14:58:22.865Z,7.60
2023-03-17T15:01:07.713Z,10.07
2023-03-17T15:03:40.228Z,9.10
2023-03-17T15:06:23.064Z,6.70
2023-03-17T15:08:52.424Z,6.97
2023-03-17T15:11:24.850Z,5.90
2023-03-17T15:14:07.298Z,6.50
2023-03-17T15:16:36.303Z,7.93
2023-03-17T15:19:16.229Z,6.83
2023-03-17T15:21:45.091Z,6.90
2023-03-17T15:24:34.148Z,8.90
2023-03-17T15:27:13.045Z,11.27
2023-03-17T15:29:40.764Z,7.43
2023-03-17T15:32:21.048Z,7.00
2023-03-17T15:34:49.656Z,7.13
2023-03-17T15:37:31.814Z,7.17
2023-03-17T15:40:01.160Z,10.43
2023-03-17T15:42:31.059Z,7.00
2023-03-17T15:45:01.144Z,6.90
2023-03-17T15:47:31.526Z,7.77
2023-03-17T15:50:07.515Z,6.93
2023-03-17T15:52:34.811Z,7.90
2023-03-17T15:55:03.949Z,7.10
2023-03-17T15:57:32.430Z,5.70
2023-03-17T15:59:59.709Z,6.83
2023-03-17T16:02:35.443Z,7.57
2023-03-17T16:05:15.098Z,6.73
2023-03-17T16:07:47.465Z,6.50
2023-03-17T16:10:28.529Z,7.83
2023-03-17T16:12:56.681Z,8.20
2023-03-17T16:15:27.212Z,6.40
2023-03-17T16:17:58.366Z,7.43
2023-03-17T16:20:37.261Z,7.70
2023-03-17T16:23:10.801Z,7.20
2023-03-17T16:25:38.625Z,6.83
2023-03-17T16:28:18.687Z,10.20
2023-03-17T16:30:47.455Z,18.63
2023-03-17T16:33:19.491Z,9.90
2023-03-17T16:35:52.289Z,18.70
2023-03-17T16:38:22.586Z,14.77
2023-03-17T16:41:00.813Z,12.43
2023-03-17T16:43:35.946Z,13.80
2023-03-17T16:46:06.177Z,14.10
2023-03-17T16:48:34.274Z,10.80
2023-03-17T16:51:02.042Z,12.87
2023-03-17T16:53:29.290Z,10.33
2023-03-17T16:55:56.982Z,9.63
2023-03-17T16:58:36.702Z,9.83
2023-03-17T17:01:11.216Z,8.97
2023-03-17T17:03:38.618Z,9.00
2023-03-17T17:06:07.512Z,8.53
2023-03-17T17:08:34.846Z,7.97
2023-03-17T17:11:02.723Z,7.80
2023-03-17T17:13:30.046Z,7.80
2023-03-17T17:15:57.744Z,8.87
2023-03-17T17:18:26.482Z,7.73
2023-03-17T17:20:54.757Z,7.67
2023-03-17T17:23:26.818Z,8.13
2023-03-17T17:25:54.861Z,7.80
2023-03-17T17:28:32.571Z,12.30
2023-03-17T17:31:00.781Z,41.87
2023-03-17T17:33:28.130Z,16.67
2023-03-17T17:35:55.882Z,15.00
2023-03-17T17:38:26.674Z,10.83
2023-03-17T17:40:56.607Z,12.07
2023-03-17T17:43:25.194Z,14.50
2023-03-17T17:45:53.726Z,11.13
2023-03-17T17:48:25.273Z,14.40
2023-03-17T17:50:54.494Z,10.83
2023-03-17T17:53:24.450Z,14.50
2023-03-17T17:55:54.253Z,11.03
2023-03-17T18:01:38.160Z,10.47
2023-03-17T18:04:06.834Z,10.33
2023-03-17T18:06:35.201Z,12.03
2023-03-17T18:09:05.579Z,10.40
2023-03-17T18:11:33.746Z,12.03
2023-03-17T18:14:08.450Z,10.50
2023-03-17T18:16:37.803Z,10.77
2023-03-17T18:19:09.818Z,13.43
2023-03-17T18:21:37.219Z,9.67
2023-03-17T18:24:05.203Z,11.77
2023-03-17T18:26:36.035Z,12.73
2023-03-17T18:29:05.402Z,11.97
2023-03-17T18:31:43.032Z,13.80
2023-03-17T18:34:43.542Z,11.93
2023-03-17T18:37:15.328Z,10.17
2023-03-17T18:39:44.568Z,11.53
2023-03-17T18:42:14.009Z,11.17
2023-03-17T18:44:42.557Z,9.43
2023-03-17T18:47:10.566Z,9.77
2023-03-17T18:49:39.032Z,12.07
2023-03-17T18:52:34.830Z,10.70
2023-03-17T18:55:03.672Z,9.60
2023-03-17T18:57:31.635Z,14.27
2023-03-17T19:00:00.089Z,10.77
2023-03-17T19:02:28.016Z,10.57
2023-03-17T19:04:56.045Z,9.90
2023-03-17T19:07:23.730Z,9.47
2023-03-17T19:09:51.374Z,10.63
2023-03-17T19:12:19.567Z,11.47
2023-03-17T19:14:47.295Z,11.67
2023-03-17T19:17:15.147Z,12.30
2023-03-17T19:19:42.731Z,10.43
2023-03-17T19:22:11.038Z,11.83
2023-03-17T19:24:38.677Z,10.37
2023-03-17T19:27:06.484Z,13.10
2023-03-17T19:29:34.210Z,15.47
2023-03-17T19:32:02.348Z,15.00
2023-03-17T19:34:30.042Z,27.27
2023-03-17T19:36:57.674Z,27.77
2023-03-17T19:39:26.139Z,23.73
2023-03-17T19:41:55.298Z,34.53
2023-03-17T19:44:23.681Z,21.53
2023-03-17T19:46:51.565Z,19.67
2023-03-17T19:49:21.357Z,19.40
2023-03-17T19:51:49.323Z,13.83
2023-03-17T19:54:18.781Z,11.97
2023-03-17T19:56:46.410Z,12.57
2023-03-17T19:59:15.396Z,12.43
2023-03-17T20:01:43.267Z,13.73
2023-03-17T20:04:13.962Z,12.27
2023-03-17T20:06:41.480Z,13.00
2023-03-17T20:09:09.064Z,12.03
2023-03-17T20:11:36.739Z,10.07
2023-03-17T20:14:04.639Z,10.07
2023-03-17T20:16:34.493Z,13.70
2023-03-17T20:19:03.521Z,10.37
2023-03-17T20:21:31.285Z,9.23
2023-03-17T20:23:59.264Z,10.33
2023-03-17T20:26:26.785Z,12.33
2023-03-17T20:28:55.574Z,10.30
2023-03-17T20:31:48.363Z,9.97
2023-03-17T20:34:17.066Z,12.47
2023-03-17T20:36:44.458Z,10.43
2023-03-17T20:39:14.784Z,9.57
2023-03-17T20:41:42.395Z,15.20
2023-03-17T20:44:12.701Z,9.67
2023-03-17T20:46:40.607Z,12.00
2023-03-17T20:49:09.063Z,11.53
2023-03-17T20:51:36.980Z,14.70
2023-03-17T20:54:04.912Z,13.53
2023-03-17T20:56:33.956Z,12.93
2023-03-17T20:59:05.344Z,11.20
2023-03-17T21:01:36.248Z,11.90
2023-03-17T21:04:09.221Z,14.00
2023-03-17T21:06:37.372Z,10.77
2023-03-17T21:09:05.849Z,11.90
2023-03-17T21:11:33.628Z,9.27
2023-03-17T21:14:03.740Z,10.67
2023-03-17T21:16:31.312Z,10.00
2023-03-17T21:18:59.008Z,8.73
2023-03-17T21:21:27.324Z,12.10
2023-03-17T21:23:55.676Z,11.53
2023-03-17T21:26:23.069Z,9.87
2023-03-17T21:28:55.258Z,11.27
2023-03-17T21:31:25.308Z,13.67
2023-03-17T21:33:54.117Z,14.30
2023-03-17T21:36:22.317Z,10.07
2023-03-17T21:38:49.891Z,9.67
2023-03-17T21:41:33.169Z,9.90
2023-03-17T21:44:03.925Z,11.43
2023-03-17T21:46:32.160Z,9.17
2023-03-17T21:49:00.399Z,9.37
2023-03-17T21:51:28.495Z,8.73
2023-03-17T21:53:57.626Z,12.67
2023-03-17T21:56:25.218Z,11.43
2023-03-17T21:58:58.354Z,13.07
2023-03-17T22:01:26.080Z,12.53
2023-03-17T22:03:53.752Z,10.37
2023-03-17T22:06:21.943Z,15.93
2023-03-17T22:08:50.505Z,13.23
2023-03-17T22:11:19.969Z,12.47
2023-03-17T22:13:47.730Z,13.97
2023-03-17T22:16:16.990Z,14.43
2023-03-17T22:18:44.646Z,12.80
2023-03-17T22:21:22.529Z,12.37
2023-03-17T22:24:00.344Z,13.30
2023-03-17T23:32:35.255Z,11.67
2023-03-17T23:37:03.653Z,12.80
2023-03-17T23:46:59.130Z,18.53
2023-03-17T23:50:40.340Z,13.63
